Главная страница
METAR-TAF:

METAR-TAF

Аэропорты :

Кутаиси, Грузия

широта: 42-10-35N, долгота: 042-28-57E, высота над уровнем моря: 68 м

Текущие метеонаблюдения

Эта сводка был подготовлена 17 минут назад, в 02:30 UTC
Ветер 2 Узел от западный-юго-западный
Температура 19°C
Влажность 94%
Давление 1014 hPa
Видимость 10 км и более
Нет облачности ниже 1500 м, и нет кучево-дождевой облачности

METAR: UGKO 210230Z 24002KT CAVOK 19/18 Q1014 NOSIG

Время: 06:47 (02:47 UTC)

Прогноз

Эта сводка был подготовлена 3 часа и 47 минут назад, в 23:00 UTC
Прогноз действительный с 21-го 00 UTC до 21-го 24 UTC
Ветер 2 Узел переменных направлений
Видимость 10 км и более
Нет облачности ниже 1500 м, и нет кучево-дождевой облачности
временами
С 21-го 12 UTC до 21-го 18 UTC
Ветер 12 Узел от западный
Отдельные облака на высоте 3000 фута
Рассеянная облачность на высоте 4500 фута

TAF: UGKO 202300Z 2100/2124 VRB02KT CAVOK TX31/2111Z TN18/2102Z TEMPO 2112/2118 26012KT SCT030 BKN045

Метеонаблюдения и прогнозы для более 4000 аэропортов (сводки METAR и TAF).

Имеющиеся станции представлены на карте желтыми и красными точками.

Чтобы увидеть название станции, наведите на нее мышь.

Затем щелкните, чтобы увидеть метеонаблюдения и метеопрогнозы.

Управление картой: чтобы увеличить масштаб, щелкните зеленые кнопки с черным крестиком; чтобы уменьшить масштаб, щелкните зеленую кнопку с тире; для просмотра соседних карт щелкайте зеленые стрелки.


METAR-TAF: